createdAt,value
2023-03-04T00:00:08.834Z,78.81
2023-03-04T00:02:36.802Z,80.23
2023-03-04T00:05:04.975Z,80.43
2023-03-04T00:07:32.580Z,80.83
2023-03-04T00:10:02.359Z,80.40
2023-03-04T00:12:30.610Z,80.26
2023-03-04T00:14:58.507Z,80.19
2023-03-04T00:17:26.667Z,80.41
2023-03-04T00:19:54.646Z,79.93
2023-03-04T00:22:22.825Z,79.70
2023-03-04T00:24:51.208Z,79.52
2023-03-04T00:27:19.279Z,79.08
2023-03-04T00:29:47.126Z,79.93
2023-03-04T00:32:16.330Z,80.37
2023-03-04T00:34:44.478Z,79.84
2023-03-04T00:37:12.541Z,80.38
2023-03-04T00:39:40.040Z,80.85
2023-03-04T00:42:08.155Z,81.66
2023-03-04T00:44:36.390Z,81.80
2023-03-04T00:47:04.586Z,81.88
2023-03-04T00:49:32.451Z,81.65
2023-03-04T00:52:00.413Z,81.23
2023-03-04T00:54:28.819Z,80.37
2023-03-04T00:56:57.314Z,80.63
2023-03-04T00:59:25.042Z,80.16
2023-03-04T01:01:53.541Z,81.74
2023-03-04T01:04:21.528Z,82.07
2023-03-04T01:06:49.921Z,82.57
2023-03-04T01:09:17.365Z,82.87
2023-03-04T01:11:44.992Z,82.66
2023-03-04T01:14:15.999Z,82.61
2023-03-04T01:16:43.978Z,81.93
2023-03-04T01:19:12.144Z,81.55
2023-03-04T01:21:40.130Z,80.94
2023-03-04T01:24:08.469Z,80.11
2023-03-04T01:26:39.342Z,80.29
2023-03-04T01:29:06.903Z,79.94
2023-03-04T01:31:37.134Z,78.67
2023-03-04T01:34:04.780Z,78.87
2023-03-04T01:36:32.768Z,79.01
2023-03-04T01:39:00.213Z,78.94
2023-03-04T01:41:30.936Z,79.10
2023-03-04T01:44:00.853Z,79.00
2023-03-04T01:46:29.766Z,78.78
2023-03-04T01:48:57.489Z,78.54
2023-03-04T01:51:24.794Z,77.96
2023-03-04T01:53:53.655Z,77.56
2023-03-04T01:56:45.104Z,77.83
2023-03-04T01:59:17.024Z,77.40
2023-03-04T02:02:08.336Z,76.84
2023-03-04T02:04:35.927Z,76.50
2023-03-04T02:07:04.366Z,76.06
2023-03-04T02:09:31.156Z,76.12
2023-03-04T02:11:59.036Z,75.89
2023-03-04T02:14:26.227Z,74.57
2023-03-04T02:16:53.673Z,74.95
2023-03-04T02:19:30.054Z,76.09
2023-03-04T02:21:57.982Z,76.70
2023-03-04T02:24:31.754Z,77.90
2023-03-04T02:27:00.585Z,77.75
2023-03-04T02:29:27.735Z,77.58
2023-03-04T02:31:55.611Z,77.75
2023-03-04T02:34:24.853Z,77.61
2023-03-04T02:36:52.525Z,77.18
2023-03-04T02:39:26.452Z,77.16
2023-03-04T02:41:54.644Z,76.96
2023-03-04T02:44:24.534Z,77.75
2023-03-04T02:46:51.821Z,79.24
2023-03-04T02:49:19.122Z,79.61
2023-03-04T02:51:47.186Z,80.12
2023-03-04T02:54:19.566Z,80.42
2023-03-04T02:57:09.154Z,81.72
2023-03-04T02:59:37.944Z,83.52
2023-03-04T03:02:05.575Z,84.92
2023-03-04T03:04:32.795Z,85.70
2023-03-04T03:07:00.724Z,85.97
2023-03-04T03:09:28.903Z,85.86
2023-03-04T03:11:56.782Z,86.13
2023-03-04T03:14:25.692Z,85.29
2023-03-04T03:16:54.169Z,85.03
2023-03-04T03:19:25.643Z,85.70
2023-03-04T03:21:53.689Z,85.96
2023-03-04T03:24:21.658Z,85.80
2023-03-04T03:26:50.190Z,85.24
2023-03-04T03:29:18.468Z,85.50
2023-03-04T03:31:46.713Z,86.40
2023-03-04T03:34:14.761Z,86.38
2023-03-04T03:36:45.969Z,86.13
2023-03-04T03:39:15.648Z,86.19
2023-03-04T03:41:43.408Z,85.92
2023-03-04T03:44:11.116Z,85.85
2023-03-04T03:46:39.039Z,86.09
2023-03-04T03:49:07.117Z,85.29
2023-03-04T03:51:34.637Z,85.32
2023-03-04T03:54:02.736Z,85.53
2023-03-04T03:56:30.871Z,85.96
2023-03-04T03:58:59.023Z,86.54
2023-03-04T04:01:27.041Z,86.87
2023-03-04T04:03:55.076Z,87.36
2023-03-04T04:06:23.695Z,87.20
2023-03-04T04:08:51.636Z,87.60
2023-03-04T04:11:19.545Z,87.63
2023-03-04T04:13:47.577Z,87.45
2023-03-04T04:16:15.941Z,88.32
2023-03-04T04:18:44.848Z,88.19
2023-03-04T04:21:13.070Z,87.65
2023-03-04T04:23:40.928Z,88.58
2023-03-04T04:26:09.162Z,89.89
2023-03-04T04:28:37.128Z,90.73
2023-03-04T04:31:09.228Z,89.94
2023-03-04T04:33:37.217Z,90.68
2023-03-04T04:36:06.289Z,91.14
2023-03-04T04:38:34.263Z,92.23
2023-03-04T04:41:02.280Z,91.66
2023-03-04T04:43:30.269Z,92.32
2023-03-04T04:46:00.439Z,92.81
2023-03-04T04:48:34.900Z,93.02
2023-03-04T04:51:02.754Z,92.75
2023-03-04T04:53:31.081Z,93.29
2023-03-04T04:55:59.365Z,94.11
2023-03-04T04:58:27.431Z,94.10
2023-03-04T05:00:58.250Z,93.08
2023-03-04T05:03:26.347Z,92.01
2023-03-04T05:05:54.466Z,91.88
2023-03-04T05:08:22.511Z,92.26
2023-03-04T05:10:50.604Z,94.48
2023-03-04T05:13:19.564Z,94.96
2023-03-04T05:15:47.651Z,95.68
2023-03-04T05:18:15.199Z,96.45
2023-03-04T05:20:42.765Z,97.76
2023-03-04T05:23:10.766Z,98.25
2023-03-04T05:25:38.786Z,97.89
2023-03-04T05:28:07.355Z,97.82
2023-03-04T05:30:35.187Z,98.36
2023-03-04T05:33:02.742Z,98.38
2023-03-04T05:35:30.376Z,95.28
2023-03-04T05:37:58.575Z,96.16
2023-03-04T05:40:27.246Z,97.45
2023-03-04T05:42:58.966Z,98.21
2023-03-04T05:45:26.671Z,100.00
2023-03-04T05:47:54.694Z,100.00
2023-03-04T05:50:23.332Z,100.00
2023-03-04T05:52:51.904Z,100.00
2023-03-04T05:55:20.415Z,100.00
2023-03-04T05:57:48.839Z,100.00
2023-03-04T06:00:18.770Z,100.00
2023-03-04T06:02:46.808Z,99.94
2023-03-04T06:05:14.965Z,99.88
2023-03-04T06:07:45.536Z,99.15
2023-03-04T06:10:14.994Z,99.46
2023-03-04T06:12:42.798Z,98.96
2023-03-04T06:15:13.928Z,99.32
2023-03-04T06:17:44.706Z,99.43
2023-03-04T06:20:14.292Z,98.24
2023-03-04T06:22:41.821Z,98.21
2023-03-04T06:25:11.467Z,97.26
2023-03-04T06:27:39.563Z,98.61
2023-03-04T06:30:11.965Z,100.00
2023-03-04T06:32:40.423Z,99.43
2023-03-04T06:35:11.302Z,99.64
2023-03-04T06:37:39.535Z,99.71
2023-03-04T06:40:08.403Z,100.00
2023-03-04T06:42:44.785Z,99.83
2023-03-04T06:45:14.526Z,99.54
2023-03-04T06:47:43.277Z,100.00
2023-03-04T06:50:14.011Z,100.00
2023-03-04T06:52:41.858Z,99.30
2023-03-04T06:55:13.085Z,99.21
2023-03-04T06:57:41.489Z,99.89
2023-03-04T07:00:13.287Z,100.00
2023-03-04T07:02:40.856Z,99.60
2023-03-04T07:05:10.131Z,99.67
2023-03-04T07:07:38.053Z,100.00
2023-03-04T07:10:07.176Z,99.75
2023-03-04T07:27:14.406Z,99.21
2023-03-04T07:29:42.819Z,99.04
2023-03-04T07:32:11.609Z,99.04
2023-03-04T07:34:40.844Z,99.19
2023-03-04T07:37:10.407Z,99.05
2023-03-04T07:39:38.317Z,98.86
2023-03-04T07:42:06.899Z,99.08
2023-03-04T07:44:35.447Z,97.02
2023-03-04T07:47:03.785Z,96.38
2023-03-04T07:49:32.784Z,95.99
2023-03-04T07:52:05.275Z,94.08
2023-03-04T07:54:53.397Z,93.65
2023-03-04T07:57:20.918Z,92.87
2023-03-04T07:59:49.040Z,91.99
2023-03-04T08:02:16.875Z,89.65
2023-03-04T08:04:44.926Z,86.88
2023-03-04T08:07:13.032Z,83.09
2023-03-04T08:09:42.499Z,82.17
2023-03-04T08:12:10.107Z,82.30
2023-03-04T08:14:37.669Z,82.75
2023-03-04T08:17:05.163Z,82.30
2023-03-04T08:19:32.948Z,81.15
2023-03-04T08:22:00.947Z,80.70
2023-03-04T08:24:29.623Z,80.04
2023-03-04T08:26:57.065Z,80.37
2023-03-04T08:29:24.741Z,80.07
2023-03-04T08:32:08.147Z,79.87
2023-03-04T08:34:39.333Z,78.66
2023-03-04T08:37:07.235Z,76.86
2023-03-04T08:39:36.161Z,75.65
2023-03-04T08:42:04.035Z,75.51
2023-03-04T08:44:34.606Z,73.21
2023-03-04T08:47:02.682Z,71.66
2023-03-04T08:49:30.567Z,72.05
2023-03-04T08:51:58.000Z,68.63
2023-03-04T08:54:25.589Z,69.28
2023-03-04T08:56:53.908Z,68.94
2023-03-04T08:59:22.045Z,68.87
2023-03-04T09:01:49.986Z,68.54
2023-03-04T09:04:17.732Z,68.02
2023-03-04T09:06:45.680Z,68.90
2023-03-04T09:09:13.577Z,68.72
2023-03-04T09:11:41.165Z,67.04
2023-03-04T09:14:09.146Z,63.26
2023-03-04T09:16:37.465Z,59.55
2023-03-04T09:19:05.154Z,59.87
2023-03-04T09:21:33.049Z,62.44
2023-03-04T09:24:01.795Z,58.90
2023-03-04T09:26:29.893Z,58.68
2023-03-04T09:28:58.791Z,56.83
2023-03-04T09:31:26.888Z,62.24
2023-03-04T09:33:54.734Z,59.42
2023-03-04T09:36:21.914Z,61.96
2023-03-04T09:38:49.664Z,61.25
2023-03-04T09:41:25.424Z,58.85
2023-03-04T09:43:53.789Z,59.48
2023-03-04T09:46:32.865Z,58.05
2023-03-04T09:49:00.440Z,60.03
2023-03-04T09:51:46.269Z,58.36
2023-03-04T09:54:23.405Z,57.31
2023-03-04T09:56:50.451Z,52.59
2023-03-04T09:59:43.816Z,52.49
2023-03-04T10:02:22.110Z,50.64
2023-03-04T10:04:54.581Z,46.04
2023-03-04T10:07:27.334Z,48.21
2023-03-04T10:10:03.602Z,48.63
2023-03-04T10:12:31.992Z,48.18
2023-03-04T10:15:04.997Z,46.40
2023-03-04T10:17:43.365Z,45.97
2023-03-04T10:20:15.208Z,45.11
2023-03-04T10:22:53.634Z,45.27
2023-03-04T10:25:26.827Z,43.49
2023-03-04T10:28:02.996Z,44.57
2023-03-04T10:30:48.934Z,46.28
2023-03-04T10:33:18.257Z,45.74
2023-03-04T10:35:50.682Z,45.11
2023-03-04T10:38:21.671Z,45.71
2023-03-04T10:40:48.436Z,45.00
2023-03-04T10:43:20.213Z,44.21
2023-03-04T10:45:46.994Z,43.74
2023-03-04T10:48:23.506Z,44.34
2023-03-04T10:50:51.122Z,44.18
2023-03-04T10:54:09.324Z,45.08
2023-03-04T10:56:37.228Z,43.31
2023-03-04T10:59:36.189Z,43.52
2023-03-04T11:02:17.928Z,43.65
2023-03-04T11:04:55.791Z,43.38
2023-03-04T11:07:34.104Z,43.51
2023-03-04T11:10:12.194Z,42.34
2023-03-04T11:12:39.744Z,41.21
2023-03-04T11:15:24.404Z,41.58
2023-03-04T11:18:06.155Z,41.61
2023-03-04T11:20:33.827Z,41.10
2023-03-04T11:23:33.088Z,40.66
2023-03-04T11:26:02.965Z,41.49
2023-03-04T11:28:52.848Z,41.54
2023-03-04T11:31:48.556Z,41.19
2023-03-04T11:34:27.663Z,41.80
2023-03-04T11:37:28.608Z,42.96
2023-03-04T11:40:30.130Z,41.66
2023-03-04T11:42:59.891Z,41.39
2023-03-04T11:46:06.068Z,42.12
2023-03-04T11:49:04.834Z,42.64
2023-03-04T11:51:40.802Z,41.95
2023-03-04T11:54:49.744Z,41.82
2023-03-04T11:57:46.922Z,42.60
2023-03-04T12:00:35.927Z,43.47
2023-03-04T12:03:22.473Z,43.67
2023-03-04T12:06:12.642Z,43.17
2023-03-04T12:08:51.481Z,44.08
2023-03-04T12:11:40.340Z,43.89
2023-03-04T12:14:23.037Z,42.17
2023-03-04T12:16:53.043Z,41.84
2023-03-04T12:19:33.497Z,42.63
2023-03-04T12:22:09.073Z,40.20
2023-03-04T12:24:41.916Z,40.47
2023-03-04T12:27:24.787Z,39.73
2023-03-04T12:30:05.659Z,40.15
2023-03-04T12:32:50.952Z,38.76
2023-03-04T12:35:25.341Z,38.29
2023-03-04T12:38:02.976Z,38.41
2023-03-04T12:41:00.470Z,36.87
2023-03-04T12:43:42.058Z,38.14
2023-03-04T12:46:27.840Z,37.43
2023-03-04T12:49:18.080Z,37.70
2023-03-04T12:52:12.713Z,35.75
2023-03-04T12:55:01.462Z,35.91
2023-03-04T12:57:33.166Z,37.01
2023-03-04T13:00:15.397Z,36.16
2023-03-04T13:02:48.186Z,35.97
2023-03-04T13:05:33.551Z,35.86
2023-03-04T13:08:22.004Z,35.41
2023-03-04T13:10:50.922Z,34.65
2023-03-04T13:13:41.041Z,34.09
2023-03-04T13:16:08.140Z,34.48
2023-03-04T13:18:36.613Z,33.76
2023-03-04T13:21:12.747Z,33.85
2023-03-04T13:23:40.489Z,33.84
2023-03-04T13:26:30.475Z,32.90
2023-03-04T13:29:19.355Z,33.22
2023-03-04T13:32:12.000Z,32.02
2023-03-04T13:34:42.070Z,31.68
2023-03-04T13:37:30.052Z,32.03
2023-03-04T13:40:23.453Z,32.24
2023-03-04T13:42:51.711Z,32.14
2023-03-04T13:45:36.856Z,32.36
2023-03-04T13:48:05.825Z,31.55
2023-03-04T13:50:37.444Z,30.70
2023-03-04T13:53:23.897Z,31.86
2023-03-04T13:56:05.285Z,31.27
2023-03-04T13:58:32.848Z,31.85
2023-03-04T14:01:00.779Z,31.77
2023-03-04T14:03:30.217Z,31.67
2023-03-04T14:06:30.571Z,32.02
2023-03-04T14:08:58.562Z,31.68
2023-03-04T14:11:28.367Z,31.98
2023-03-04T14:13:56.689Z,32.35
2023-03-04T14:16:26.372Z,33.11
2023-03-04T14:19:01.497Z,33.36
2023-03-04T14:21:29.142Z,33.32
2023-03-04T14:24:02.474Z,33.04
2023-03-04T14:26:31.188Z,33.35
2023-03-04T14:28:59.746Z,33.05
2023-03-04T14:31:30.712Z,33.10
2023-03-04T14:34:02.423Z,33.02
2023-03-04T14:36:33.166Z,32.66
2023-03-04T14:39:02.762Z,32.39
2023-03-04T14:41:40.502Z,32.81
2023-03-04T14:44:29.122Z,32.52
2023-03-04T14:47:08.356Z,32.05
2023-03-04T14:49:39.990Z,31.40
2023-03-04T14:52:07.752Z,31.67
2023-03-04T14:54:39.477Z,31.98
2023-03-04T14:57:36.213Z,32.59
2023-03-04T15:00:22.420Z,33.70
2023-03-04T15:02:50.902Z,33.39
2023-03-04T15:05:32.605Z,34.15
2023-03-04T15:08:05.261Z,34.81
2023-03-04T15:10:36.556Z,34.87
2023-03-04T15:13:07.750Z,34.28
2023-03-04T15:15:45.051Z,34.31
2023-03-04T15:18:30.405Z,35.10
2023-03-04T15:20:58.131Z,34.61
2023-03-04T15:23:26.243Z,35.08
2023-03-04T15:25:54.479Z,35.31
2023-03-04T15:28:21.274Z,35.16
2023-03-04T15:30:49.449Z,35.15
2023-03-04T15:33:17.900Z,34.39
2023-03-04T15:35:55.362Z,34.03
2023-03-04T15:38:22.684Z,33.10
2023-03-04T15:40:53.962Z,32.97
2023-03-04T15:43:22.931Z,32.69
2023-03-04T15:45:50.510Z,32.54
2023-03-04T15:48:18.638Z,32.74
2023-03-04T15:50:51.807Z,32.81
2023-03-04T15:53:45.817Z,33.67
2023-03-04T15:56:48.167Z,33.89
2023-03-04T15:59:15.496Z,34.55
2023-03-04T16:01:42.590Z,34.93
2023-03-04T16:04:17.230Z,36.29
2023-03-04T16:06:45.873Z,37.23
2023-03-04T16:09:15.213Z,37.37
2023-03-04T16:11:47.018Z,38.01
2023-03-04T16:14:14.749Z,38.45
2023-03-04T16:16:47.033Z,39.23
2023-03-04T16:19:15.616Z,40.01
2023-03-04T16:21:43.594Z,40.59
2023-03-04T16:24:19.269Z,40.00
2023-03-04T16:26:46.553Z,40.24
2023-03-04T16:29:14.131Z,40.65
2023-03-04T16:31:42.323Z,40.37
2023-03-04T16:34:09.962Z,40.21
2023-03-04T16:36:37.908Z,40.71
2023-03-04T16:39:07.267Z,41.77
2023-03-04T16:41:37.655Z,42.55
2023-03-04T16:44:06.945Z,43.33
2023-03-04T16:46:34.512Z,44.38
2023-03-04T16:49:02.091Z,45.10
2023-03-04T16:51:31.897Z,46.76
2023-03-04T16:54:02.271Z,47.75
2023-03-04T16:56:30.454Z,48.33
2023-03-04T16:58:57.879Z,49.46
2023-03-04T17:01:29.282Z,50.60
2023-03-04T17:03:56.968Z,51.49
2023-03-04T17:06:25.167Z,51.92
2023-03-04T17:08:55.616Z,52.90
2023-03-04T17:11:24.088Z,53.97
2023-03-04T17:13:51.641Z,54.29
2023-03-04T17:16:18.905Z,54.30
2023-03-04T17:18:46.169Z,54.97
2023-03-04T17:21:15.676Z,56.04
2023-03-04T17:23:43.644Z,56.53
2023-03-04T17:26:11.782Z,57.02
2023-03-04T17:28:39.546Z,57.14
2023-03-04T17:31:12.056Z,57.59
2023-03-04T17:33:39.838Z,58.17
2023-03-04T17:36:11.819Z,59.19
2023-03-04T17:38:39.944Z,59.12
2023-03-04T17:41:10.406Z,59.24
2023-03-04T17:43:38.517Z,59.27
2023-03-04T17:46:07.460Z,59.39
2023-03-04T17:48:35.451Z,59.86
2023-03-04T17:51:03.069Z,59.98
2023-03-04T17:53:34.380Z,60.06
2023-03-04T17:56:02.688Z,60.93
2023-03-04T17:58:30.522Z,61.18
2023-03-04T18:01:06.480Z,61.30
2023-03-04T18:03:34.570Z,61.77
2023-03-04T18:06:02.297Z,61.76
2023-03-04T18:08:30.322Z,62.11
2023-03-04T18:10:58.454Z,62.51
2023-03-04T18:13:26.099Z,63.12
2023-03-04T18:15:53.669Z,63.95
2023-03-04T18:18:21.843Z,63.82
2023-03-04T18:20:49.803Z,63.94
2023-03-04T18:23:18.985Z,63.74
2023-03-04T18:25:46.785Z,63.63
2023-03-04T18:28:14.786Z,63.74
2023-03-04T18:30:43.872Z,63.96
2023-03-04T18:33:11.903Z,63.69
2023-03-04T18:35:39.573Z,63.64
2023-03-04T18:38:08.085Z,64.23
2023-03-04T18:40:36.160Z,65.08
2023-03-04T18:43:04.643Z,65.47
2023-03-04T18:45:32.579Z,66.01
2023-03-04T18:48:00.268Z,66.28
2023-03-04T18:50:27.950Z,66.89
2023-03-04T18:52:56.197Z,66.80
2023-03-04T18:55:23.370Z,66.96
2023-03-04T18:57:52.530Z,67.17
2023-03-04T19:00:21.229Z,67.49
2023-03-04T19:02:56.794Z,68.03
2023-03-04T19:05:27.502Z,67.24
2023-03-04T19:07:55.532Z,67.80
2023-03-04T19:10:23.922Z,66.98
2023-03-04T19:12:51.695Z,67.97
2023-03-04T19:15:20.204Z,67.85
2023-03-04T19:17:48.193Z,68.80
2023-03-04T19:20:16.487Z,70.22
2023-03-04T19:22:44.575Z,69.85
2023-03-04T19:25:11.960Z,71.26
2023-03-04T19:27:39.873Z,70.54
2023-03-04T19:30:09.553Z,71.51
2023-03-04T19:32:37.054Z,71.06
2023-03-04T19:35:05.531Z,70.79
2023-03-04T19:37:33.640Z,71.35
2023-03-04T19:40:03.439Z,71.31
2023-03-04T19:44:07.726Z,70.93
2023-03-04T20:02:37.254Z,71.35
2023-03-04T20:55:37.636Z,72.80
2023-03-04T21:17:35.013Z,73.65
2023-03-04T21:32:57.410Z,75.16
